sensor_id;sensor_type;location;lat;lon;timestamp;pressure;altitude;pressure_sealevel;temperature
20733;BMP180;10527;52.124;5.196;2023-04-01T00:01:46;98903.00;;;21.50
20733;BMP180;10527;52.124;5.196;2023-04-01T00:04:13;98914.00;;;21.50
20733;BMP180;10527;52.124;5.196;2023-04-01T00:06:39;98902.00;;;21.40
20733;BMP180;10527;52.124;5.196;2023-04-01T00:09:06;98910.00;;;21.40
20733;BMP180;10527;52.124;5.196;2023-04-01T00:11:33;98908.00;;;21.40
20733;BMP180;10527;52.124;5.196;2023-04-01T00:14:00;98906.00;;;21.40
20733;BMP180;10527;52.124;5.196;2023-04-01T00:16:27;98912.00;;;21.40
20733;BMP180;10527;52.124;5.196;2023-04-01T00:18:54;98911.00;;;21.30
20733;BMP180;10527;52.124;5.196;2023-04-01T00:21:21;98919.00;;;21.30
20733;BMP180;10527;52.124;5.196;2023-04-01T00:23:50;98911.00;;;21.30
20733;BMP180;10527;52.124;5.196;2023-04-01T00:26:18;98914.00;;;21.30
20733;BMP180;10527;52.124;5.196;2023-04-01T00:28:48;98906.00;;;21.30
20733;BMP180;10527;52.124;5.196;2023-04-01T00:31:15;98910.00;;;21.30
20733;BMP180;10527;52.124;5.196;2023-04-01T00:33:42;98914.00;;;21.30
20733;BMP180;10527;52.124;5.196;2023-04-01T00:36:17;98923.00;;;21.30
20733;BMP180;10527;52.124;5.196;2023-04-01T00:38:46;98916.00;;;21.30
20733;BMP180;10527;52.124;5.196;2023-04-01T00:41:19;98910.00;;;21.30
20733;BMP180;10527;52.124;5.196;2023-04-01T00:43:50;98922.00;;;21.20
20733;BMP180;10527;52.124;5.196;2023-04-01T00:46:18;98920.00;;;21.20
20733;BMP180;10527;52.124;5.196;2023-04-01T00:48:54;98919.00;;;21.20
20733;BMP180;10527;52.124;5.196;2023-04-01T00:51:28;98923.00;;;21.20
20733;BMP180;10527;52.124;5.196;2023-04-01T00:53:59;98924.00;;;21.20
20733;BMP180;10527;52.124;5.196;2023-04-01T00:56:32;98922.00;;;21.10
20733;BMP180;10527;52.124;5.196;2023-04-01T00:59:13;98926.00;;;21.10
20733;BMP180;10527;52.124;5.196;2023-04-01T01:01:40;98917.00;;;21.10
20733;BMP180;10527;52.124;5.196;2023-04-01T01:07:26;98932.00;;;21.10
20733;BMP180;10527;52.124;5.196;2023-04-01T01:10:31;98935.00;;;21.10
20733;BMP180;10527;52.124;5.196;2023-04-01T01:13:31;98935.00;;;21.00
20733;BMP180;10527;52.124;5.196;2023-04-01T01:16:13;98928.00;;;21.00
20733;BMP180;10527;52.124;5.196;2023-04-01T01:22:10;98940.00;;;21.00
20733;BMP180;10527;52.124;5.196;2023-04-01T01:25:05;98936.00;;;20.90
20733;BMP180;10527;52.124;5.196;2023-04-01T01:27:44;98936.00;;;20.90
20733;BMP180;10527;52.124;5.196;2023-04-01T01:36:12;98934.00;;;20.90
20733;BMP180;10527;52.124;5.196;2023-04-01T01:38:40;98937.00;;;20.80
20733;BMP180;10527;52.124;5.196;2023-04-01T01:41:09;98938.00;;;20.90
20733;BMP180;10527;52.124;5.196;2023-04-01T01:43:46;98944.00;;;20.80
20733;BMP180;10527;52.124;5.196;2023-04-01T01:46:22;98933.00;;;20.80
20733;BMP180;10527;52.124;5.196;2023-04-01T01:48:51;98942.00;;;20.80
20733;BMP180;10527;52.124;5.196;2023-04-01T01:51:21;98943.00;;;20.80
20733;BMP180;10527;52.124;5.196;2023-04-01T01:53:49;98941.00;;;20.80
20733;BMP180;10527;52.124;5.196;2023-04-01T01:56:20;98944.00;;;20.80
20733;BMP180;10527;52.124;5.196;2023-04-01T01:59:03;98948.00;;;20.80
20733;BMP180;10527;52.124;5.196;2023-04-01T02:01:37;98947.00;;;20.70
20733;BMP180;10527;52.124;5.196;2023-04-01T02:04:05;98944.00;;;20.70
20733;BMP180;10527;52.124;5.196;2023-04-01T02:06:37;98950.00;;;20.70
20733;BMP180;10527;52.124;5.196;2023-04-01T02:09:09;98942.00;;;20.70
20733;BMP180;10527;52.124;5.196;2023-04-01T02:11:52;98950.00;;;20.70
20733;BMP180;10527;52.124;5.196;2023-04-01T02:14:52;98958.00;;;20.70
20733;BMP180;10527;52.124;5.196;2023-04-01T02:17:24;98959.00;;;20.70
20733;BMP180;10527;52.124;5.196;2023-04-01T02:20:01;98962.00;;;20.70
20733;BMP180;10527;52.124;5.196;2023-04-01T02:22:37;98968.00;;;20.60
20733;BMP180;10527;52.124;5.196;2023-04-01T02:25:14;98963.00;;;20.60
20733;BMP180;10527;52.124;5.196;2023-04-01T02:27:46;98971.00;;;20.60
20733;BMP180;10527;52.124;5.196;2023-04-01T02:30:15;98971.00;;;20.60
20733;BMP180;10527;52.124;5.196;2023-04-01T02:32:43;98968.00;;;20.60
20733;BMP180;10527;52.124;5.196;2023-04-01T02:35:16;98965.00;;;20.60
20733;BMP180;10527;52.124;5.196;2023-04-01T02:37:45;98973.00;;;20.60
20733;BMP180;10527;52.124;5.196;2023-04-01T02:40:16;98970.00;;;20.60
20733;BMP180;10527;52.124;5.196;2023-04-01T02:42:44;98968.00;;;20.50
20733;BMP180;10527;52.124;5.196;2023-04-01T02:45:12;98973.00;;;20.50
20733;BMP180;10527;52.124;5.196;2023-04-01T02:47:40;98975.00;;;20.50
20733;BMP180;10527;52.124;5.196;2023-04-01T02:50:08;98975.00;;;20.50
20733;BMP180;10527;52.124;5.196;2023-04-01T02:52:35;98982.00;;;20.50
20733;BMP180;10527;52.124;5.196;2023-04-01T02:55:03;98986.00;;;20.50
20733;BMP180;10527;52.124;5.196;2023-04-01T02:57:30;98985.00;;;20.50
20733;BMP180;10527;52.124;5.196;2023-04-01T02:59:57;98987.00;;;20.50
20733;BMP180;10527;52.124;5.196;2023-04-01T03:02:24;98991.00;;;20.50
20733;BMP180;10527;52.124;5.196;2023-04-01T03:04:51;98992.00;;;20.50
20733;BMP180;10527;52.124;5.196;2023-04-01T03:07:18;98997.00;;;20.50
20733;BMP180;10527;52.124;5.196;2023-04-01T03:09:45;99000.00;;;20.50
20733;BMP180;10527;52.124;5.196;2023-04-01T03:12:11;98997.00;;;20.50
20733;BMP180;10527;52.124;5.196;2023-04-01T03:14:38;99003.00;;;20.50
20733;BMP180;10527;52.124;5.196;2023-04-01T03:17:05;99002.00;;;20.50
20733;BMP180;10527;52.124;5.196;2023-04-01T03:19:32;99004.00;;;20.60
20733;BMP180;10527;52.124;5.196;2023-04-01T03:21:58;99016.00;;;20.60
20733;BMP180;10527;52.124;5.196;2023-04-01T03:24:25;99025.00;;;20.60
20733;BMP180;10527;52.124;5.196;2023-04-01T03:26:52;99021.00;;;20.60
20733;BMP180;10527;52.124;5.196;2023-04-01T03:29:19;99027.00;;;20.60
20733;BMP180;10527;52.124;5.196;2023-04-01T03:31:46;99023.00;;;20.60
20733;BMP180;10527;52.124;5.196;2023-04-01T03:34:13;99031.00;;;20.60
20733;BMP180;10527;52.124;5.196;2023-04-01T03:36:39;99041.00;;;20.60
20733;BMP180;10527;52.124;5.196;2023-04-01T03:39:08;99038.00;;;20.60
20733;BMP180;10527;52.124;5.196;2023-04-01T03:41:37;99038.00;;;20.60
20733;BMP180;10527;52.124;5.196;2023-04-01T03:44:05;99040.00;;;20.70
20733;BMP180;10527;52.124;5.196;2023-04-01T03:46:32;99049.00;;;20.70
20733;BMP180;10527;52.124;5.196;2023-04-01T03:48:58;99042.00;;;20.70
20733;BMP180;10527;52.124;5.196;2023-04-01T03:51:25;99047.00;;;20.70
20733;BMP180;10527;52.124;5.196;2023-04-01T03:53:52;99054.00;;;20.70
20733;BMP180;10527;52.124;5.196;2023-04-01T03:56:26;99052.00;;;20.80
20733;BMP180;10527;52.124;5.196;2023-04-01T03:58:53;99054.00;;;20.80
20733;BMP180;10527;52.124;5.196;2023-04-01T04:01:22;99064.00;;;20.80
20733;BMP180;10527;52.124;5.196;2023-04-01T04:03:49;99069.00;;;20.80
20733;BMP180;10527;52.124;5.196;2023-04-01T04:06:20;99070.00;;;20.80
20733;BMP180;10527;52.124;5.196;2023-04-01T04:08:50;99080.00;;;20.80
20733;BMP180;10527;52.124;5.196;2023-04-01T04:11:20;99077.00;;;20.80
20733;BMP180;10527;52.124;5.196;2023-04-01T04:13:50;99085.00;;;20.80
20733;BMP180;10527;52.124;5.196;2023-04-01T04:16:21;99080.00;;;20.80
20733;BMP180;10527;52.124;5.196;2023-04-01T04:18:47;99092.00;;;20.80
20733;BMP180;10527;52.124;5.196;2023-04-01T04:21:15;99096.00;;;20.80
20733;BMP180;10527;52.124;5.196;2023-04-01T04:23:44;99095.00;;;20.80
20733;BMP180;10527;52.124;5.196;2023-04-01T04:26:14;99102.00;;;20.70
20733;BMP180;10527;52.124;5.196;2023-04-01T04:28:41;99115.00;;;20.70
20733;BMP180;10527;52.124;5.196;2023-04-01T04:31:18;99113.00;;;20.70
20733;BMP180;10527;52.124;5.196;2023-04-01T04:33:46;99117.00;;;20.70
20733;BMP180;10527;52.124;5.196;2023-04-01T04:36:14;99113.00;;;20.60
20733;BMP180;10527;52.124;5.196;2023-04-01T04:38:41;99120.00;;;20.70
20733;BMP180;10527;52.124;5.196;2023-04-01T04:41:10;99130.00;;;20.70
20733;BMP180;10527;52.124;5.196;2023-04-01T04:43:40;99135.00;;;20.60
20733;BMP180;10527;52.124;5.196;2023-04-01T04:46:10;99134.00;;;20.70
20733;BMP180;10527;52.124;5.196;2023-04-01T04:48:37;99133.00;;;20.70
20733;BMP180;10527;52.124;5.196;2023-04-01T04:51:04;99139.00;;;20.70
20733;BMP180;10527;52.124;5.196;2023-04-01T04:53:31;99150.00;;;20.70
20733;BMP180;10527;52.124;5.196;2023-04-01T04:55:58;99149.00;;;20.70
20733;BMP180;10527;52.124;5.196;2023-04-01T04:58:25;99158.00;;;20.70
20733;BMP180;10527;52.124;5.196;2023-04-01T05:00:52;99164.00;;;20.70
20733;BMP180;10527;52.124;5.196;2023-04-01T05:03:18;99172.00;;;20.70
20733;BMP180;10527;52.124;5.196;2023-04-01T05:05:52;99172.00;;;20.80
20733;BMP180;10527;52.124;5.196;2023-04-01T05:08:19;99170.00;;;20.80
20733;BMP180;10527;52.124;5.196;2023-04-01T05:10:47;99177.00;;;20.80
20733;BMP180;10527;52.124;5.196;2023-04-01T05:13:13;99178.00;;;20.80
20733;BMP180;10527;52.124;5.196;2023-04-01T05:15:42;99177.00;;;20.80
20733;BMP180;10527;52.124;5.196;2023-04-01T05:18:22;99189.00;;;20.80
20733;BMP180;10527;52.124;5.196;2023-04-01T05:20:52;99189.00;;;20.90
20733;BMP180;10527;52.124;5.196;2023-04-01T05:23:21;99193.00;;;20.90
20733;BMP180;10527;52.124;5.196;2023-04-01T05:25:50;99199.00;;;20.90
20733;BMP180;10527;52.124;5.196;2023-04-01T05:28:19;99198.00;;;20.90
20733;BMP180;10527;52.124;5.196;2023-04-01T05:30:46;99202.00;;;21.00
20733;BMP180;10527;52.124;5.196;2023-04-01T05:33:15;99209.00;;;20.90
20733;BMP180;10527;52.124;5.196;2023-04-01T05:35:42;99212.00;;;20.90
20733;BMP180;10527;52.124;5.196;2023-04-01T05:38:09;99217.00;;;20.90
20733;BMP180;10527;52.124;5.196;2023-04-01T05:40:36;99221.00;;;20.90
20733;BMP180;10527;52.124;5.196;2023-04-01T05:43:03;99226.00;;;21.00
20733;BMP180;10527;52.124;5.196;2023-04-01T05:45:29;99239.00;;;21.00
20733;BMP180;10527;52.124;5.196;2023-04-01T05:47:57;99235.00;;;21.00
20733;BMP180;10527;52.124;5.196;2023-04-01T05:50:23;99232.00;;;21.00
20733;BMP180;10527;52.124;5.196;2023-04-01T05:52:50;99239.00;;;21.00
20733;BMP180;10527;52.124;5.196;2023-04-01T05:55:19;99237.00;;;21.00
20733;BMP180;10527;52.124;5.196;2023-04-01T05:57:47;99239.00;;;21.00
20733;BMP180;10527;52.124;5.196;2023-04-01T06:00:17;99238.00;;;21.00
20733;BMP180;10527;52.124;5.196;2023-04-01T06:02:44;99239.00;;;21.00
20733;BMP180;10527;52.124;5.196;2023-04-01T06:05:24;99247.00;;;21.00
20733;BMP180;10527;52.124;5.196;2023-04-01T06:08:00;99253.00;;;21.00
20733;BMP180;10527;52.124;5.196;2023-04-01T06:13:56;99265.00;;;21.00
20733;BMP180;10527;52.124;5.196;2023-04-01T06:16:51;99269.00;;;21.00
20733;BMP180;10527;52.124;5.196;2023-04-01T06:19:51;99273.00;;;20.90
20733;BMP180;10527;52.124;5.196;2023-04-01T06:35:02;99308.00;;;20.90
20733;BMP180;10527;52.124;5.196;2023-04-01T06:38:41;99306.00;;;20.80
20733;BMP180;10527;52.124;5.196;2023-04-01T06:41:48;99326.00;;;20.70
20733;BMP180;10527;52.124;5.196;2023-04-01T06:50:29;99332.00;;;20.70
20733;BMP180;10527;52.124;5.196;2023-04-01T06:55:46;99343.00;;;20.70
20733;BMP180;10527;52.124;5.196;2023-04-01T06:58:21;99342.00;;;20.80
20733;BMP180;10527;52.124;5.196;2023-04-01T07:00:58;99345.00;;;20.80
20733;BMP180;10527;52.124;5.196;2023-04-01T07:03:44;99349.00;;;20.80
20733;BMP180;10527;52.124;5.196;2023-04-01T07:06:35;99350.00;;;20.90
20733;BMP180;10527;52.124;5.196;2023-04-01T07:09:11;99365.00;;;20.90
20733;BMP180;10527;52.124;5.196;2023-04-01T07:11:40;99365.00;;;20.90
20733;BMP180;10527;52.124;5.196;2023-04-01T07:14:24;99367.00;;;20.90
20733;BMP180;10527;52.124;5.196;2023-04-01T07:17:07;99370.00;;;20.90
20733;BMP180;10527;52.124;5.196;2023-04-01T07:25:07;99376.00;;;20.80
20733;BMP180;10527;52.124;5.196;2023-04-01T07:27:37;99390.00;;;20.80
20733;BMP180;10527;52.124;5.196;2023-04-01T07:30:23;99394.00;;;20.80
20733;BMP180;10527;52.124;5.196;2023-04-01T07:33:05;99405.00;;;20.80
20733;BMP180;10527;52.124;5.196;2023-04-01T07:48:21;99421.00;;;21.00
20733;BMP180;10527;52.124;5.196;2023-04-01T07:53:53;99426.00;;;21.00
20733;BMP180;10527;52.124;5.196;2023-04-01T07:56:51;99438.00;;;21.00
20733;BMP180;10527;52.124;5.196;2023-04-01T07:59:42;99445.00;;;21.10
20733;BMP180;10527;52.124;5.196;2023-04-01T08:05:57;99455.00;;;21.10
20733;BMP180;10527;52.124;5.196;2023-04-01T08:23:05;99474.00;;;21.10
20733;BMP180;10527;52.124;5.196;2023-04-01T08:25:42;99476.00;;;21.20
20733;BMP180;10527;52.124;5.196;2023-04-01T08:28:32;99480.00;;;21.20
20733;BMP180;10527;52.124;5.196;2023-04-01T08:31:13;99487.00;;;21.20
20733;BMP180;10527;52.124;5.196;2023-04-01T08:33:46;99490.00;;;21.20
20733;BMP180;10527;52.124;5.196;2023-04-01T08:36:23;99497.00;;;21.30
20733;BMP180;10527;52.124;5.196;2023-04-01T08:39:07;99504.00;;;21.30
20733;BMP180;10527;52.124;5.196;2023-04-01T08:56:50;99522.00;;;21.30
20733;BMP180;10527;52.124;5.196;2023-04-01T09:01:02;99523.00;;;21.30
20733;BMP180;10527;52.124;5.196;2023-04-01T09:06:19;99529.00;;;21.30
20733;BMP180;10527;52.124;5.196;2023-04-01T09:27:33;99552.00;;;21.40
20733;BMP180;10527;52.124;5.196;2023-04-01T09:36:20;99570.00;;;21.40
20733;BMP180;10527;52.124;5.196;2023-04-01T09:39:24;99562.00;;;21.50
20733;BMP180;10527;52.124;5.196;2023-04-01T09:48:37;99581.00;;;21.50
20733;BMP180;10527;52.124;5.196;2023-04-01T09:54:36;99579.00;;;21.50
20733;BMP180;10527;52.124;5.196;2023-04-01T10:07:01;99603.00;;;21.50
20733;BMP180;10527;52.124;5.196;2023-04-01T10:32:42;99630.00;;;21.60
20733;BMP180;10527;52.124;5.196;2023-04-01T10:38:49;99636.00;;;21.60
20733;BMP180;10527;52.124;5.196;2023-04-01T10:44:41;99636.00;;;21.70
20733;BMP180;10527;52.124;5.196;2023-04-01T10:47:43;99645.00;;;21.80
20733;BMP180;10527;52.124;5.196;2023-04-01T10:59:25;99652.00;;;21.90
20733;BMP180;10527;52.124;5.196;2023-04-01T11:18:48;99662.00;;;22.10
20733;BMP180;10527;52.124;5.196;2023-04-01T11:24:38;99678.00;;;22.30
20733;BMP180;10527;52.124;5.196;2023-04-01T11:27:55;99686.00;;;22.30
20733;BMP180;10527;52.124;5.196;2023-04-01T11:31:11;99678.00;;;22.30
20733;BMP180;10527;52.124;5.196;2023-04-01T11:39:11;99685.00;;;22.40
20733;BMP180;10527;52.124;5.196;2023-04-01T11:41:56;99699.00;;;22.40
20733;BMP180;10527;52.124;5.196;2023-04-01T11:44:29;99688.00;;;22.40
20733;BMP180;10527;52.124;5.196;2023-04-01T11:47:28;99698.00;;;22.50
20733;BMP180;10527;52.124;5.196;2023-04-01T12:05:26;99722.00;;;22.40
20733;BMP180;10527;52.124;5.196;2023-04-01T12:17:09;99744.00;;;22.40
20733;BMP180;10527;52.124;5.196;2023-04-01T12:22:53;99750.00;;;22.40
20733;BMP180;10527;52.124;5.196;2023-04-01T12:25:48;99755.00;;;22.40
20733;BMP180;10527;52.124;5.196;2023-04-01T12:31:34;99759.00;;;22.40
20733;BMP180;10527;52.124;5.196;2023-04-01T12:37:33;99772.00;;;22.40
20733;BMP180;10527;52.124;5.196;2023-04-01T12:41:02;99774.00;;;22.40
20733;BMP180;10527;52.124;5.196;2023-04-01T12:57:06;99793.00;;;22.20
20733;BMP180;10527;52.124;5.196;2023-04-01T13:06:41;99802.00;;;22.20
20733;BMP180;10527;52.124;5.196;2023-04-01T13:16:22;99808.00;;;22.20
20733;BMP180;10527;52.124;5.196;2023-04-01T13:19:07;99820.00;;;22.20
20733;BMP180;10527;52.124;5.196;2023-04-01T13:22:24;99820.00;;;22.30
20733;BMP180;10527;52.124;5.196;2023-04-01T13:28:09;99842.00;;;22.30
20733;BMP180;10527;52.124;5.196;2023-04-01T13:31:01;99840.00;;;22.30
20733;BMP180;10527;52.124;5.196;2023-04-01T13:33:45;99845.00;;;22.30
20733;BMP180;10527;52.124;5.196;2023-04-01T13:37:12;99846.00;;;22.30
20733;BMP180;10527;52.124;5.196;2023-04-01T13:54:40;99870.00;;;22.10
20733;BMP180;10527;52.124;5.196;2023-04-01T14:00:25;99867.00;;;22.00
20733;BMP180;10527;52.124;5.196;2023-04-01T14:03:37;99875.00;;;22.00
20733;BMP180;10527;52.124;5.196;2023-04-01T14:12:31;99875.00;;;21.90
20733;BMP180;10527;52.124;5.196;2023-04-01T14:15:25;99880.00;;;21.90
20733;BMP180;10527;52.124;5.196;2023-04-01T14:18:42;99888.00;;;21.90
20733;BMP180;10527;52.124;5.196;2023-04-01T14:21:55;99892.00;;;21.90
20733;BMP180;10527;52.124;5.196;2023-04-01T14:28:13;99909.00;;;21.80
20733;BMP180;10527;52.124;5.196;2023-04-01T14:31:23;99908.00;;;21.90
20733;BMP180;10527;52.124;5.196;2023-04-01T14:40:27;99923.00;;;21.90
20733;BMP180;10527;52.124;5.196;2023-04-01T14:43:28;99931.00;;;21.90
20733;BMP180;10527;52.124;5.196;2023-04-01T14:46:12;99931.00;;;21.90
20733;BMP180;10527;52.124;5.196;2023-04-01T14:49:02;99933.00;;;21.90
20733;BMP180;10527;52.124;5.196;2023-04-01T14:51:38;99947.00;;;21.90
20733;BMP180;10527;52.124;5.196;2023-04-01T14:54:22;99963.00;;;21.90
20733;BMP180;10527;52.124;5.196;2023-04-01T14:57:34;99960.00;;;21.90
20733;BMP180;10527;52.124;5.196;2023-04-01T15:15:29;99994.00;;;22.00
20733;BMP180;10527;52.124;5.196;2023-04-01T15:23:56;100016.00;;;22.10
20733;BMP180;10527;52.124;5.196;2023-04-01T15:30:14;100029.00;;;22.10
20733;BMP180;10527;52.124;5.196;2023-04-01T15:33:09;100030.00;;;22.10
20733;BMP180;10527;52.124;5.196;2023-04-01T15:47:52;100062.00;;;22.00
20733;BMP180;10527;52.124;5.196;2023-04-01T15:50:36;100065.00;;;22.00
20733;BMP180;10527;52.124;5.196;2023-04-01T15:56:26;100079.00;;;22.00
20733;BMP180;10527;52.124;5.196;2023-04-01T15:59:35;100086.00;;;22.10
20733;BMP180;10527;52.124;5.196;2023-04-01T16:17:12;100114.00;;;21.80
20733;BMP180;10527;52.124;5.196;2023-04-01T16:20:44;100118.00;;;21.80
20733;BMP180;10527;52.124;5.196;2023-04-01T16:23:43;100114.00;;;21.80
20733;BMP180;10527;52.124;5.196;2023-04-01T16:29:27;100135.00;;;21.70
20733;BMP180;10527;52.124;5.196;2023-04-01T16:35:12;100149.00;;;21.60
20733;BMP180;10527;52.124;5.196;2023-04-01T16:38:05;100148.00;;;21.50
20733;BMP180;10527;52.124;5.196;2023-04-01T16:44:18;100161.00;;;21.50
20733;BMP180;10527;52.124;5.196;2023-04-01T16:47:05;100166.00;;;21.50
20733;BMP180;10527;52.124;5.196;2023-04-01T16:49:44;100171.00;;;21.40
20733;BMP180;10527;52.124;5.196;2023-04-01T16:52:17;100174.00;;;21.40
20733;BMP180;10527;52.124;5.196;2023-04-01T16:55:03;100179.00;;;21.40
20733;BMP180;10527;52.124;5.196;2023-04-01T16:57:51;100189.00;;;21.40
20733;BMP180;10527;52.124;5.196;2023-04-01T17:00:29;100201.00;;;21.40
20733;BMP180;10527;52.124;5.196;2023-04-01T17:11:27;100224.00;;;21.40
20733;BMP180;10527;52.124;5.196;2023-04-01T17:17:48;100246.00;;;21.40
20733;BMP180;10527;52.124;5.196;2023-04-01T17:20:46;100242.00;;;21.30
20733;BMP180;10527;52.124;5.196;2023-04-01T17:23:45;100260.00;;;21.30
20733;BMP180;10527;52.124;5.196;2023-04-01T17:29:34;100273.00;;;21.30
20733;BMP180;10527;52.124;5.196;2023-04-01T17:32:25;100280.00;;;21.20
20733;BMP180;10527;52.124;5.196;2023-04-01T17:38:10;100287.00;;;21.20
20733;BMP180;10527;52.124;5.196;2023-04-01T17:41:29;100295.00;;;21.10
20733;BMP180;10527;52.124;5.196;2023-04-01T17:44:47;100313.00;;;21.10
20733;BMP180;10527;52.124;5.196;2023-04-01T17:47:31;100312.00;;;21.10
20733;BMP180;10527;52.124;5.196;2023-04-01T17:50:23;100316.00;;;21.00
20733;BMP180;10527;52.124;5.196;2023-04-01T17:56:17;100323.00;;;20.90
20733;BMP180;10527;52.124;5.196;2023-04-01T18:08:22;100356.00;;;20.80
20733;BMP180;10527;52.124;5.196;2023-04-01T18:14:54;100368.00;;;20.80
20733;BMP180;10527;52.124;5.196;2023-04-01T18:20:54;100387.00;;;20.80
20733;BMP180;10527;52.124;5.196;2023-04-01T18:23:36;100397.00;;;20.80
20733;BMP180;10527;52.124;5.196;2023-04-01T18:26:31;100404.00;;;20.80
20733;BMP180;10527;52.124;5.196;2023-04-01T18:29:36;100416.00;;;20.80
20733;BMP180;10527;52.124;5.196;2023-04-01T18:38:18;100432.00;;;20.80
20733;BMP180;10527;52.124;5.196;2023-04-01T18:41:22;100438.00;;;20.80
20733;BMP180;10527;52.124;5.196;2023-04-01T18:44:16;100448.00;;;20.80
20733;BMP180;10527;52.124;5.196;2023-04-01T18:47:10;100460.00;;;20.80
20733;BMP180;10527;52.124;5.196;2023-04-01T18:50:06;100466.00;;;20.70
20733;BMP180;10527;52.124;5.196;2023-04-01T18:52:43;100474.00;;;20.70
20733;BMP180;10527;52.124;5.196;2023-04-01T18:55:24;100476.00;;;20.70
20733;BMP180;10527;52.124;5.196;2023-04-01T18:58:23;100489.00;;;20.70
20733;BMP180;10527;52.124;5.196;2023-04-01T19:01:12;100495.00;;;20.60
20733;BMP180;10527;52.124;5.196;2023-04-01T19:04:20;100505.00;;;20.60
20733;BMP180;10527;52.124;5.196;2023-04-01T19:06:55;100505.00;;;20.60
20733;BMP180;10527;52.124;5.196;2023-04-01T19:09:52;100514.00;;;20.60
20733;BMP180;10527;52.124;5.196;2023-04-01T19:21:44;100533.00;;;20.60
20733;BMP180;10527;52.124;5.196;2023-04-01T19:27:26;100552.00;;;20.60
20733;BMP180;10527;52.124;5.196;2023-04-01T19:30:31;100564.00;;;20.60
20733;BMP180;10527;52.124;5.196;2023-04-01T19:42:46;100595.00;;;20.40
20733;BMP180;10527;52.124;5.196;2023-04-01T19:51:29;100609.00;;;20.30
20733;BMP180;10527;52.124;5.196;2023-04-01T19:57:34;100615.00;;;20.30
20733;BMP180;10527;52.124;5.196;2023-04-01T20:00:14;100626.00;;;20.30
20733;BMP180;10527;52.124;5.196;2023-04-01T20:09:07;100647.00;;;20.20
20733;BMP180;10527;52.124;5.196;2023-04-01T20:12:15;100653.00;;;20.20
20733;BMP180;10527;52.124;5.196;2023-04-01T20:14:54;100657.00;;;20.20
20733;BMP180;10527;52.124;5.196;2023-04-01T20:25:48;100676.00;;;20.00
20733;BMP180;10527;52.124;5.196;2023-04-01T20:40:35;100712.00;;;19.80
20733;BMP180;10527;52.124;5.196;2023-04-01T20:46:56;100722.00;;;19.70
20733;BMP180;10527;52.124;5.196;2023-04-01T20:50:11;100740.00;;;19.70
20733;BMP180;10527;52.124;5.196;2023-04-01T20:53:12;100741.00;;;19.70
20733;BMP180;10527;52.124;5.196;2023-04-01T21:04:36;100759.00;;;19.60
20733;BMP180;10527;52.124;5.196;2023-04-01T21:07:41;100767.00;;;19.50
20733;BMP180;10527;52.124;5.196;2023-04-01T21:16:41;100783.00;;;19.50
20733;BMP180;10527;52.124;5.196;2023-04-01T21:31:02;100815.00;;;19.30
20733;BMP180;10527;52.124;5.196;2023-04-01T21:37:17;100827.00;;;19.30
20733;BMP180;10527;52.124;5.196;2023-04-01T21:42:51;100847.00;;;19.20
20733;BMP180;10527;52.124;5.196;2023-04-01T21:45:33;100855.00;;;19.30
20733;BMP180;10527;52.124;5.196;2023-04-01T22:02:35;100871.00;;;19.10
20733;BMP180;10527;52.124;5.196;2023-04-01T22:05:11;100879.00;;;19.10
20733;BMP180;10527;52.124;5.196;2023-04-01T22:08:28;100884.00;;;19.10
20733;BMP180;10527;52.124;5.196;2023-04-01T22:14:38;100902.00;;;19.10
20733;BMP180;10527;52.124;5.196;2023-04-01T22:17:29;100897.00;;;19.00
20733;BMP180;10527;52.124;5.196;2023-04-01T22:23:10;100914.00;;;19.00
20733;BMP180;10527;52.124;5.196;2023-04-01T22:26:05;100915.00;;;19.00
20733;BMP180;10527;52.124;5.196;2023-04-01T22:31:40;100925.00;;;19.00
20733;BMP180;10527;52.124;5.196;2023-04-01T22:42:59;100938.00;;;18.90
20733;BMP180;10527;52.124;5.196;2023-04-01T22:45:39;100949.00;;;18.90
20733;BMP180;10527;52.124;5.196;2023-04-01T22:48:31;100951.00;;;18.90
20733;BMP180;10527;52.124;5.196;2023-04-01T22:51:22;100964.00;;;18.90
20733;BMP180;10527;52.124;5.196;2023-04-01T22:57:30;100974.00;;;18.90
20733;BMP180;10527;52.124;5.196;2023-04-01T23:00:04;100980.00;;;18.80
20733;BMP180;10527;52.124;5.196;2023-04-01T23:03:22;100981.00;;;18.80
20733;BMP180;10527;52.124;5.196;2023-04-01T23:05:53;100998.00;;;18.80
20733;BMP180;10527;52.124;5.196;2023-04-01T23:11:33;100999.00;;;18.80
20733;BMP180;10527;52.124;5.196;2023-04-01T23:20:29;101011.00;;;18.60
20733;BMP180;10527;52.124;5.196;2023-04-01T23:23:39;101019.00;;;18.50
20733;BMP180;10527;52.124;5.196;2023-04-01T23:26:25;101023.00;;;18.60
20733;BMP180;10527;52.124;5.196;2023-04-01T23:28:58;101028.00;;;18.60
20733;BMP180;10527;52.124;5.196;2023-04-01T23:36:47;101035.00;;;18.60
20733;BMP180;10527;52.124;5.196;2023-04-01T23:39:37;101037.00;;;18.60
20733;BMP180;10527;52.124;5.196;2023-04-01T23:44:56;101046.00;;;18.60
20733;BMP180;10527;52.124;5.196;2023-04-01T23:47:33;101051.00;;;18.50
20733;BMP180;10527;52.124;5.196;2023-04-01T23:50:11;101062.00;;;18.50
20733;BMP180;10527;52.124;5.196;2023-04-01T23:52:46;101064.00;;;18.50
